Time;durP1;ratioP1;P1;durP2;ratioP2;P2;SDS_P1;SDS_P2;PMS_P1;PMS_P2;Temp;Humidity;BMP_temperature;BMP_pressure;BME280_temperature;BME280_humidity;BME280_pressure;Samples;Min_cycle;Max_cycle;Signal;HPM_P1;HPM_P2
2023/01/12 00:00:20;;;;;;;16.90;1.85;;;7.60;99.90;;;;;;4179898;28;20524;-88
2023/01/12 00:02:21;;;;;;;12.60;1.73;;;7.60;99.90;;;;;;4196557;28;20044;-88
2023/01/12 00:04:22;;;;;;;13.23;1.52;;;8.10;99.90;;;;;;4195060;28;20084;-88
2023/01/12 00:06:24;;;;;;;16.73;2.75;;;7.50;99.90;;;;;;4195418;28;20045;-88
2023/01/12 00:08:26;;;;;;;14.50;2.30;;;7.40;99.90;;;;;;4194155;28;20506;-88
2023/01/12 00:10:27;;;;;;;10.50;2.00;;;7.60;99.90;;;;;;4179377;28;20080;-88
2023/01/12 00:12:28;;;;;;;14.35;2.33;;;7.60;99.90;;;;;;4183571;28;20553;-88
2023/01/12 00:14:29;;;;;;;17.95;1.77;;;7.60;99.90;;;;;;4180622;28;20557;-88
2023/01/12 00:16:34;;;;;;;16.85;2.25;;;7.60;99.90;;;;;;4169510;28;20117;-88
2023/01/12 00:18:35;;;;;;;16.30;2.22;;;8.00;99.90;;;;;;4180564;28;20557;-88
2023/01/12 00:20:35;;;;;;;19.73;2.00;;;5.90;99.90;;;;;;4181099;28;20040;-88
2023/01/12 00:22:36;;;;;;;10.80;1.48;;;7.60;99.90;;;;;;4187509;28;20040;-89
2023/01/12 00:24:42;;;;;;;14.18;1.70;;;7.80;99.90;;;;;;4196899;28;20063;-88
2023/01/12 00:26:46;;;;;;;13.32;2.25;;;7.80;99.90;;;;;;4179033;28;20040;-88
2023/01/12 00:28:46;;;;;;;16.05;3.20;;;7.80;99.90;;;;;;4199298;28;20044;-88
2023/01/12 00:30:47;;;;;;;20.02;3.55;;;7.70;99.90;;;;;;4188986;28;20087;-88
2023/01/12 00:32:48;;;;;;;16.95;2.15;;;7.80;99.90;;;;;;4181903;28;20227;-87
2023/01/12 00:34:49;;;;;;;18.27;2.63;;;7.80;99.90;;;;;;4183930;28;20056;-88
2023/01/12 00:36:50;;;;;;;15.85;2.85;;;7.90;99.90;;;;;;4197550;28;20047;-88
2023/01/12 00:38:51;;;;;;;17.90;1.98;;;8.00;99.90;;;;;;4197919;28;20480;-88
2023/01/12 00:40:53;;;;;;;16.73;1.75;;;7.90;99.90;;;;;;4197655;28;20076;-88
2023/01/12 00:45:21;;;;;;;;;;;8.00;99.90;;;;;;4197968;28;20598;-87
2023/01/12 00:47:22;;;;;;;18.95;2.72;;;7.90;99.90;;;;;;4198456;28;20399;-88
2023/01/12 00:49:23;;;;;;;16.70;2.78;;;7.80;99.90;;;;;;4196663;28;20056;-88
2023/01/12 00:51:23;;;;;;;18.80;2.45;;;8.10;99.90;;;;;;4182306;28;20045;-88
2023/01/12 00:53:24;;;;;;;16.08;2.55;;;7.80;99.90;;;;;;4191698;28;20049;-88
2023/01/12 00:55:25;;;;;;;17.25;2.47;;;8.20;99.90;;;;;;4165249;28;20506;-88
2023/01/12 00:57:26;;;;;;;22.77;2.55;;;7.80;99.90;;;;;;4195241;28;20517;-88
2023/01/12 00:59:28;;;;;;;17.88;3.55;;;7.90;99.90;;;;;;4197606;28;20331;-89
2023/01/12 01:01:29;;;;;;;12.48;2.10;;;7.80;99.90;;;;;;4199105;28;20055;-88
2023/01/12 01:03:31;;;;;;;27.92;2.92;;;7.80;99.90;;;;;;4182353;28;20061;-88
2023/01/12 01:05:32;;;;;;;18.30;2.55;;;7.90;99.90;;;;;;4197923;28;20048;-89
2023/01/12 01:07:33;;;;;;;18.10;2.30;;;7.70;99.90;;;;;;4200318;28;20097;-88
2023/01/12 01:09:34;;;;;;;14.02;2.65;;;7.90;99.90;;;;;;4186439;28;20084;-88
2023/01/12 01:11:35;;;;;;;16.73;2.60;;;7.90;99.90;;;;;;4182231;28;20521;-89
2023/01/12 01:13:36;;;;;;;15.23;2.17;;;7.80;99.90;;;;;;4188506;28;20041;-89
2023/01/12 01:15:38;;;;;;;20.20;2.17;;;7.90;99.90;;;;;;4197988;28;20037;-89
2023/01/12 01:17:39;;;;;;;18.15;1.98;;;7.90;99.90;;;;;;4180030;28;20037;-89
2023/01/12 01:19:39;;;;;;;14.93;2.28;;;8.10;99.90;;;;;;4199508;28;20510;-89
2023/01/12 01:21:40;;;;;;;16.23;2.53;;;7.90;99.90;;;;;;4196182;28;20055;-89
2023/01/12 01:23:41;;;;;;;15.73;2.25;;;8.00;99.90;;;;;;4181361;28;20501;-89
2023/01/12 01:25:42;;;;;;;17.15;2.22;;;7.90;99.90;;;;;;4165056;28;20081;-89
2023/01/12 01:27:44;;;;;;;16.00;3.25;;;8.20;99.90;;;;;;4193914;28;20044;-89
2023/01/12 01:29:44;;;;;;;15.75;1.75;;;7.80;99.90;;;;;;4199486;28;20051;-90
2023/01/12 01:31:46;;;;;;;14.15;3.22;;;7.90;99.90;;;;;;4187102;28;20052;-90
2023/01/12 01:44:18;;;;;;;10.30;1.73;;;7.90;99.90;;;;;;4182597;28;20407;-90
2023/01/12 01:46:36;;;;;;;18.38;2.00;;;7.90;99.90;;;;;;4180431;28;20048;-90
2023/01/12 01:52:13;;;;;;;16.80;2.38;;;7.90;99.90;;;;;;4186519;28;20289;-89
2023/01/12 01:54:14;;;;;;;11.05;1.52;;;8.20;99.90;;;;;;4196773;28;20068;-89
2023/01/12 01:56:24;;;;;;;17.75;2.35;;;9.00;99.90;;;;;;4196168;28;20131;-89
2023/01/12 01:58:33;;;;;;;26.83;3.13;;;7.90;99.90;;;;;;4197414;28;20469;-90
2023/01/12 02:00:37;;;;;;;15.82;2.00;;;7.90;99.90;;;;;;4180559;28;20057;-90
2023/01/12 02:02:44;;;;;;;18.88;3.47;;;7.80;99.90;;;;;;4194505;28;20056;-89
2023/01/12 02:04:45;;;;;;;24.27;1.75;;;7.80;99.90;;;;;;4182891;28;20091;-90
2023/01/12 02:06:47;;;;;;;17.48;2.17;;;7.80;99.90;;;;;;4191279;28;20131;-90
2023/01/12 02:08:56;;;;;;;20.60;2.63;;;9.00;99.90;;;;;;4198236;28;20128;-89
2023/01/12 02:10:58;;;;;;;11.40;1.80;;;7.30;99.90;;;;;;4197763;28;20419;-87
2023/01/12 02:18:09;;;;;;;10.88;1.63;;;7.60;99.90;;;;;;4167269;28;20512;-88
2023/01/12 02:21:01;;;;;;;15.00;3.90;;;7.90;99.90;;;;;;4181096;28;20049;-88
2023/01/12 02:23:21;;;;;;;15.00;2.00;;;8.00;99.90;;;;;;4183098;28;20056;-88
2023/01/12 02:26:07;;;;;;;10.88;2.28;;;8.00;99.90;;;;;;4196196;28;20055;-88
2023/01/12 02:28:15;;;;;;;15.10;2.28;;;8.00;99.90;;;;;;4195636;28;20489;-88
2023/01/12 02:30:20;;;;;;;20.58;2.28;;;8.00;99.90;;;;;;4197725;28;20531;-89
2023/01/12 02:32:39;;;;;;;15.00;1.98;;;8.00;99.90;;;;;;4195507;28;20055;-88
2023/01/12 02:35:07;;;;;;;14.25;2.00;;;8.00;99.90;;;;;;4179826;28;20048;-88
2023/01/12 02:37:07;;;;;;;12.52;2.50;;;8.10;99.90;;;;;;4197077;28;20559;-87
2023/01/12 02:39:08;;;;;;;15.35;2.50;;;8.10;99.90;;;;;;4196229;28;20045;-86
2023/01/12 02:43:56;;;;;;;21.95;4.18;;;8.10;99.90;;;;;;4201573;28;20063;-87
2023/01/12 02:46:10;;;;;;;20.65;2.35;;;8.40;99.90;;;;;;4197101;28;20048;-87
2023/01/12 02:48:17;;;;;;;17.70;3.05;;;9.20;99.90;;;;;;4180409;28;20132;-91
2023/01/12 02:50:32;;;;;;;16.85;3.20;;;8.10;99.90;;;;;;4186945;28;20100;-86
2023/01/12 02:52:34;;;;;;;12.82;2.58;;;8.10;99.90;;;;;;4180619;28;20041;-86
2023/01/12 02:54:37;;;;;;;17.02;2.45;;;9.10;99.90;;;;;;4189379;28;20131;-86
2023/01/12 02:56:40;;;;;;;19.00;3.58;;;9.70;99.90;;;;;;4196392;28;20044;-87
2023/01/12 02:58:47;;;;;;;9.90;2.70;;;8.10;99.90;;;;;;4168535;28;20099;-87
2023/01/12 03:00:50;;;;;;;16.25;2.92;;;7.60;99.90;;;;;;4179720;28;20529;-87
2023/01/12 03:02:50;;;;;;;16.42;3.22;;;8.90;99.90;;;;;;4184695;28;20048;-88
2023/01/12 03:04:52;;;;;;;17.02;3.97;;;7.90;99.90;;;;;;4196594;28;20412;-87
2023/01/12 03:06:55;;;;;;;14.60;2.17;;;9.00;99.90;;;;;;4178918;28;20064;-88
2023/01/12 03:08:56;;;;;;;19.02;3.60;;;9.00;99.90;;;;;;4196422;28;20052;-88
2023/01/12 03:11:05;;;;;;;13.80;2.65;;;8.80;99.90;;;;;;4182898;28;20049;-87
2023/01/12 03:13:10;;;;;;;16.73;2.50;;;8.10;99.90;;;;;;4189161;28;20149;-88
2023/01/12 03:15:15;;;;;;;15.30;2.85;;;8.10;99.90;;;;;;4196960;28;20117;-88
2023/01/12 03:17:25;;;;;;;17.40;1.83;;;8.70;99.90;;;;;;4196018;28;20049;-88
2023/01/12 03:19:31;;;;;;;20.08;3.53;;;8.10;99.90;;;;;;4193477;28;20080;-88
2023/01/12 03:21:37;;;;;;;17.00;2.30;;;8.40;99.90;;;;;;4196724;28;20515;-88
2023/01/12 03:23:48;;;;;;;17.40;1.88;;;8.20;99.90;;;;;;4179725;28;20045;-90
2023/01/12 03:25:52;;;;;;;19.85;3.10;;;8.10;99.90;;;;;;4184745;28;20527;-90
2023/01/12 03:27:58;;;;;;;15.60;2.65;;;8.10;99.90;;;;;;4171028;28;20055;-89
2023/01/12 03:30:12;;;;;;;18.40;3.00;;;8.40;99.90;;;;;;4197292;28;20076;-89
2023/01/12 03:32:13;;;;;;;12.80;2.28;;;8.20;99.90;;;;;;4179732;28;20063;-89
2023/01/12 03:34:14;;;;;;;12.82;2.70;;;8.20;99.90;;;;;;4183907;28;20433;-89
2023/01/12 03:36:20;;;;;;;17.70;2.03;;;8.30;99.90;;;;;;4180090;28;20041;-89
2023/01/12 03:38:32;;;;;;;11.90;2.20;;;8.20;99.90;;;;;;4162893;28;20591;-89
2023/01/12 03:40:47;;;;;;;16.20;2.45;;;9.00;99.90;;;;;;4179959;28;20517;-89
2023/01/12 03:43:04;;;;;;;17.83;2.85;;;8.40;99.90;;;;;;4185631;28;20037;-89
2023/01/12 03:45:35;;;;;;;13.43;2.13;;;8.20;99.90;;;;;;4196300;28;20132;-89
2023/01/12 03:47:39;;;;;;;17.15;2.38;;;8.30;99.90;;;;;;4179250;28;20104;-89
2023/01/12 03:49:46;;;;;;;16.92;2.58;;;8.30;99.90;;;;;;4179692;28;20053;-89
2023/01/12 03:51:48;;;;;;;12.07;2.42;;;8.30;99.90;;;;;;4179692;28;20497;-88
2023/01/12 03:53:51;;;;;;;13.50;2.40;;;8.30;99.90;;;;;;4180933;28;20322;-89
2023/01/12 03:55:56;;;;;;;11.88;2.60;;;9.00;99.90;;;;;;4193085;28;20067;-89
2023/01/12 03:57:57;;;;;;;19.55;2.47;;;8.40;99.90;;;;;;4196981;28;20136;-88
2023/01/12 03:59:59;;;;;;;12.57;1.98;;;8.50;99.90;;;;;;4185664;28;20548;-89
2023/01/12 04:02:00;;;;;;;13.90;2.45;;;8.70;99.90;;;;;;4187919;28;20490;-88
2023/01/12 04:04:01;;;;;;;14.27;2.45;;;9.00;99.90;;;;;;4183679;28;20040;-88
2023/01/12 04:06:02;;;;;;;12.13;1.42;;;8.30;99.90;;;;;;4184905;28;20048;-89
2023/01/12 04:08:04;;;;;;;18.70;2.17;;;8.30;99.90;;;;;;4190772;28;20507;-89
2023/01/12 04:10:06;;;;;;;12.95;1.98;;;8.30;99.90;;;;;;4197594;28;20120;-88
2023/01/12 04:12:09;;;;;;;18.48;2.47;;;8.30;99.90;;;;;;4167618;28;20050;-88
2023/01/12 04:14:10;;;;;;;19.48;1.98;;;8.40;99.90;;;;;;4170260;28;20049;-89
2023/01/12 04:16:10;;;;;;;19.35;3.08;;;8.30;99.90;;;;;;4184609;28;20045;-89
2023/01/12 04:18:11;;;;;;;14.52;2.95;;;8.40;99.90;;;;;;4190128;28;20044;-88
2023/01/12 04:20:12;;;;;;;13.48;2.05;;;8.50;99.90;;;;;;4182218;28;20531;-89
2023/01/12 04:24:34;;;;;;;16.05;2.08;;;8.40;99.90;;;;;;4183987;28;20078;-89
2023/01/12 04:26:34;;;;;;;15.05;1.85;;;9.10;99.90;;;;;;4188809;28;20137;-89
2023/01/12 04:28:35;;;;;;;10.32;2.88;;;8.90;99.90;;;;;;4201158;28;20489;-89
2023/01/12 04:30:36;;;;;;;13.20;1.58;;;8.90;99.90;;;;;;4200618;28;20048;-89
2023/01/12 04:32:37;;;;;;;18.10;2.08;;;9.20;99.90;;;;;;4201930;28;20123;-88
2023/01/12 04:34:40;;;;;;;18.02;1.88;;;8.50;99.90;;;;;;4198274;28;20044;-88
2023/01/12 04:36:42;;;;;;;14.20;2.47;;;8.30;99.90;;;;;;4199757;28;20044;-87
2023/01/12 04:38:42;;;;;;;9.85;1.45;;;9.10;99.90;;;;;;4200234;28;20037;-88
2023/01/12 04:40:43;;;;;;;11.65;2.70;;;9.20;99.90;;;;;;4197709;28;20045;-88
2023/01/12 04:43:01;;;;;;;13.57;2.78;;;8.50;99.90;;;;;;4199935;28;20052;-88
2023/01/12 04:45:01;;;;;;;10.48;2.45;;;8.50;99.90;;;;;;4187011;28;20056;-88
2023/01/12 04:47:05;;;;;;;7.03;1.25;;;8.50;99.90;;;;;;4182472;28;20044;-88
2023/01/12 04:49:07;;;;;;;5.65;1.50;;;9.00;99.90;;;;;;4182621;28;20130;-88
2023/01/12 04:51:08;;;;;;;7.05;1.23;;;8.40;99.90;;;;;;4183427;28;20049;-89
2023/01/12 04:53:11;;;;;;;7.18;1.65;;;8.40;99.90;;;;;;4196276;28;20037;-87
2023/01/12 04:55:12;;;;;;;9.68;1.83;;;8.50;99.90;;;;;;4198383;28;20579;-88
2023/01/12 04:57:13;;;;;;;6.10;0.93;;;8.90;99.90;;;;;;4199572;28;20053;-88
2023/01/12 04:59:14;;;;;;;6.15;1.40;;;8.40;99.90;;;;;;4196967;28;20114;-88
2023/01/12 05:01:16;;;;;;;5.22;0.70;;;8.40;99.90;;;;;;4199447;28;20485;-88
2023/01/12 05:03:17;;;;;;;6.78;1.38;;;9.10;99.90;;;;;;4195079;28;20182;-89
2023/01/12 05:05:19;;;;;;;6.65;1.75;;;8.50;99.90;;;;;;4198125;28;20582;-89
2023/01/12 05:07:21;;;;;;;3.28;1.00;;;8.20;99.90;;;;;;4197538;28;20047;-88
2023/01/12 05:11:40;;;;;;;7.85;1.50;;;8.40;99.90;;;;;;4198302;28;20516;-89
2023/01/12 05:13:42;;;;;;;11.15;1.30;;;8.60;99.90;;;;;;4195898;28;20069;-89
2023/01/12 05:15:43;;;;;;;2.42;0.85;;;8.30;99.90;;;;;;4199271;28;20049;-89
2023/01/12 05:17:43;;;;;;;6.40;1.63;;;8.30;99.90;;;;;;4183702;28;20103;-90
2023/01/12 05:19:44;;;;;;;4.10;1.15;;;8.20;99.90;;;;;;4181860;28;20041;-87
2023/01/12 05:21:45;;;;;;;1.90;0.50;;;8.70;99.90;;;;;;4180775;28;20044;-88
2023/01/12 05:23:45;;;;;;;2.47;0.85;;;8.40;99.90;;;;;;4182664;28;20138;-88
2023/01/12 05:25:46;;;;;;;5.40;1.25;;;8.90;99.90;;;;;;4181616;28;20033;-88
2023/01/12 05:27:47;;;;;;;2.85;0.50;;;9.10;99.90;;;;;;4181355;28;20489;-89
2023/01/12 05:29:48;;;;;;;3.40;0.90;;;8.30;99.90;;;;;;4184124;28;20090;-88
2023/01/12 05:31:49;;;;;;;2.75;0.50;;;8.20;99.90;;;;;;4181622;28;20053;-88
2023/01/12 05:33:50;;;;;;;4.07;0.98;;;8.70;99.90;;;;;;4180558;28;20045;-89
2023/01/12 05:35:51;;;;;;;5.55;1.05;;;8.50;99.90;;;;;;4180549;28;20126;-89
2023/01/12 05:37:55;;;;;;;1.77;0.68;;;8.20;99.90;;;;;;4179754;28;20278;-88
2023/01/12 05:39:55;;;;;;;4.20;0.90;;;8.40;99.90;;;;;;4180512;28;20071;-88
2023/01/12 05:44:16;;;;;;;1.95;0.80;;;9.00;99.90;;;;;;4196318;28;20499;-89
2023/01/12 05:46:21;;;;;;;2.38;0.68;;;8.20;99.90;;;;;;4173811;28;20041;-89
2023/01/12 05:48:22;;;;;;;0.60;0.47;;;8.60;99.90;;;;;;4180556;28;20052;-88
2023/01/12 05:50:23;;;;;;;1.88;0.60;;;7.90;99.90;;;;;;4181181;28;20096;-89
2023/01/12 05:52:24;;;;;;;2.47;0.60;;;8.40;99.90;;;;;;4181570;28;20091;-89
2023/01/12 05:54:25;;;;;;;1.48;0.60;;;8.50;99.90;;;;;;4193434;28;20063;-89
2023/01/12 05:56:27;;;;;;;0.73;0.32;;;8.40;99.90;;;;;;4196837;28;20048;-89
2023/01/12 05:58:28;;;;;;;2.47;0.80;;;8.40;99.90;;;;;;4196997;28;20492;-89
2023/01/12 06:00:29;;;;;;;3.80;0.68;;;8.60;99.90;;;;;;4196958;28;20478;-89
2023/01/12 06:02:31;;;;;;;1.67;0.80;;;8.30;99.90;;;;;;4200772;28;20078;-88
2023/01/12 06:04:31;;;;;;;1.85;0.77;;;8.10;99.90;;;;;;4198016;28;20049;-88
2023/01/12 06:06:32;;;;;;;2.47;0.55;;;8.40;99.90;;;;;;4198121;28;20051;-89
2023/01/12 06:08:34;;;;;;;2.13;0.60;;;8.60;99.90;;;;;;4195725;28;20044;-88
2023/01/12 06:10:38;;;;;;;1.67;0.60;;;9.00;99.90;;;;;;4198380;28;20510;-89
2023/01/12 06:14:58;;;;;;;2.08;0.60;;;8.50;99.90;;;;;;4197391;28;20472;-88
2023/01/12 06:16:58;;;;;;;2.13;0.57;;;7.80;99.90;;;;;;4195347;28;20222;-88
2023/01/12 06:19:00;;;;;;;1.60;0.52;;;8.10;99.90;;;;;;4196378;28;20547;-88
2023/01/12 06:21:01;;;;;;;1.48;1.00;;;8.80;99.90;;;;;;4197212;28;20129;-89
2023/01/12 06:23:06;;;;;;;3.67;0.77;;;8.30;99.90;;;;;;4196514;28;20733;-89
2023/01/12 06:25:07;;;;;;;3.03;1.15;;;8.30;99.90;;;;;;4199292;28;20515;-88
2023/01/12 06:27:09;;;;;;;0.82;0.30;;;9.50;99.90;;;;;;4190515;28;20045;-88
2023/01/12 06:29:10;;;;;;;3.38;0.52;;;8.10;99.90;;;;;;4186321;28;20139;-88
2023/01/12 06:31:12;;;;;;;0.50;0.32;;;9.40;99.90;;;;;;4190834;28;20394;-87
2023/01/12 06:33:13;;;;;;;0.90;0.40;;;8.40;99.90;;;;;;4197807;28;20272;-88
2023/01/12 06:35:14;;;;;;;0.43;0.30;;;8.50;99.90;;;;;;4180781;28;20053;-86
2023/01/12 06:37:15;;;;;;;0.93;0.32;;;8.40;99.90;;;;;;4180918;28;20386;-87
2023/01/12 06:39:15;;;;;;;1.20;0.30;;;9.00;99.90;;;;;;4175988;28;20501;-87
2023/01/12 06:43:36;;;;;;;0.60;0.20;;;8.20;99.90;;;;;;4182677;28;20049;-87
2023/01/12 06:45:38;;;;;;;1.85;0.43;;;9.30;99.90;;;;;;4180960;28;20132;-88
2023/01/12 06:47:46;;;;;;;1.50;0.47;;;8.90;99.90;;;;;;4172394;28;20076;-87
2023/01/12 06:49:50;;;;;;;1.98;0.70;;;9.50;99.90;;;;;;4180919;28;20559;-87
2023/01/12 06:51:51;;;;;;;1.27;0.30;;;9.20;99.90;;;;;;4196848;28;20461;-89
2023/01/12 06:53:52;;;;;;;2.65;0.47;;;9.70;99.90;;;;;;4197498;28;20057;-89
2023/01/12 06:55:52;;;;;;;3.40;0.50;;;9.00;99.90;;;;;;4209050;28;20455;-87
2023/01/12 06:57:53;;;;;;;1.00;0.30;;;8.60;99.90;;;;;;4196335;28;20044;-88
2023/01/12 06:59:55;;;;;;;1.65;0.20;;;8.60;99.90;;;;;;4195963;28;20459;-87
2023/01/12 07:01:56;;;;;;;0.75;0.38;;;8.60;99.90;;;;;;4186446;28;20053;-87
2023/01/12 07:03:57;;;;;;;0.38;0.22;;;8.60;99.90;;;;;;4196531;28;20044;-87
2023/01/12 07:05:59;;;;;;;0.30;0.20;;;8.60;99.90;;;;;;4192854;28;20500;-87
2023/01/12 07:08:01;;;;;;;2.55;0.47;;;8.60;99.90;;;;;;4185168;28;20051;-88
2023/01/12 07:10:03;;;;;;;1.75;0.50;;;8.70;99.90;;;;;;4184302;28;20045;-87
2023/01/12 07:12:04;;;;;;;2.45;0.55;;;8.80;99.90;;;;;;4165107;28;20056;-88
2023/01/12 07:14:05;;;;;;;5.03;0.77;;;8.80;99.90;;;;;;4196845;28;20049;-88
2023/01/12 07:16:06;;;;;;;10.00;0.77;;;8.80;99.90;;;;;;4199069;28;20041;-88
2023/01/12 07:18:08;;;;;;;5.05;0.98;;;8.00;99.90;;;;;;4197821;28;20040;-90
2023/01/12 07:20:12;;;;;;;3.50;1.30;;;9.00;99.90;;;;;;4183642;28;20136;-89
2023/01/12 07:22:14;;;;;;;8.00;1.02;;;;;;;;;;4198412;28;20048;-89
2023/01/12 07:24:14;;;;;;;6.00;1.27;;;9.10;99.90;;;;;;4181440;28;20134;-88
2023/01/12 07:26:15;;;;;;;12.95;1.70;;;9.20;99.90;;;;;;4196159;28;20075;-88
2023/01/12 07:28:16;;;;;;;8.25;1.85;;;9.10;99.90;;;;;;4197595;28;20157;-87
2023/01/12 07:30:20;;;;;;;5.95;1.67;;;9.20;99.90;;;;;;4198283;28;20503;-88
2023/01/12 07:32:26;;;;;;;8.10;1.75;;;9.30;99.90;;;;;;4199091;28;20107;-87
2023/01/12 07:34:26;;;;;;;9.70;1.27;;;8.90;99.90;;;;;;4188070;28;20060;-87
2023/01/12 07:36:27;;;;;;;8.02;1.52;;;9.30;99.90;;;;;;4184693;28;20052;-89
2023/01/12 07:38:29;;;;;;;3.97;1.35;;;9.20;99.90;;;;;;4175146;28;20202;-88
2023/01/12 07:40:31;;;;;;;5.40;1.48;;;9.40;99.90;;;;;;4184884;28;20052;-88
2023/01/12 07:42:32;;;;;;;8.00;1.40;;;9.40;99.90;;;;;;4197462;28;20045;-87
2023/01/12 07:44:33;;;;;;;12.88;1.75;;;9.50;99.90;;;;;;4185496;28;20532;-87
2023/01/12 07:46:34;;;;;;;5.75;1.45;;;9.50;99.90;;;;;;4187678;28;20455;-88
2023/01/12 07:48:35;;;;;;;11.27;1.23;;;9.60;99.90;;;;;;4184837;28;20056;-89
2023/01/12 07:50:36;;;;;;;11.23;1.65;;;9.90;99.90;;;;;;4167732;28;20081;-88
2023/01/12 07:52:37;;;;;;;9.25;1.50;;;9.80;99.90;;;;;;4201559;28;20047;-88
2023/01/12 07:54:38;;;;;;;7.88;1.38;;;9.70;99.90;;;;;;4201356;28;20174;-87
2023/01/12 07:56:41;;;;;;;9.48;1.70;;;9.70;99.90;;;;;;4201604;28;20059;-88
2023/01/12 07:58:43;;;;;;;9.68;1.63;;;9.70;99.90;;;;;;4200118;28;20048;-88
2023/01/12 08:00:44;;;;;;;7.90;1.33;;;9.80;99.90;;;;;;4202048;28;20041;-88
2023/01/12 08:02:44;;;;;;;9.02;2.67;;;9.80;99.90;;;;;;4188949;28;20041;-88
2023/01/12 08:04:46;;;;;;;9.93;2.30;;;9.80;99.90;;;;;;4183028;28;20052;-88
2023/01/12 08:06:48;;;;;;;10.52;1.77;;;9.80;99.90;;;;;;4195071;28;20570;-87
2023/01/12 08:08:48;;;;;;;12.48;1.75;;;9.90;99.90;;;;;;4200768;28;20507;-87
2023/01/12 08:10:50;;;;;;;17.92;2.72;;;10.00;99.90;;;;;;4198886;28;20080;-87
2023/01/12 08:12:52;;;;;;;10.25;1.50;;;10.00;99.90;;;;;;4184243;28;20429;-87
2023/01/12 08:14:54;;;;;;;10.80;1.80;;;10.00;99.90;;;;;;4183773;28;20049;-89
2023/01/12 08:17:00;;;;;;;18.50;3.55;;;10.10;99.90;;;;;;4168417;28;20528;-88
2023/01/12 08:19:30;;;;;;;14.10;2.15;;;10.20;99.90;;;;;;4192375;28;20040;-88
2023/01/12 08:21:43;;;;;;;17.98;3.60;;;10.20;99.90;;;;;;4201117;28;20059;-87
2023/01/12 08:23:52;;;;;;;10.05;2.15;;;10.30;99.90;;;;;;4185906;28;20056;-88
2023/01/12 08:25:58;;;;;;;8.33;2.30;;;10.20;99.90;;;;;;4184486;28;20080;-88
2023/01/12 08:28:03;;;;;;;16.60;3.22;;;10.40;99.90;;;;;;4194589;28;20059;-90
2023/01/12 08:30:07;;;;;;;4.53;1.20;;;10.30;99.90;;;;;;4201307;28;20404;-88
2023/01/12 08:32:09;;;;;;;15.23;1.92;;;10.40;99.90;;;;;;4193667;28;20048;-88
2023/01/12 08:34:10;;;;;;;10.85;1.27;;;10.40;99.90;;;;;;4186499;28;20584;-88
2023/01/12 08:36:15;;;;;;;4.82;1.00;;;10.50;99.90;;;;;;4183940;28;20048;-88
2023/01/12 08:38:18;;;;;;;11.30;2.03;;;;;;;;;;4197568;28;20059;-88
2023/01/12 08:40:18;;;;;;;8.73;1.55;;;10.80;99.90;;;;;;4184396;28;20045;-88
2023/01/12 08:42:22;;;;;;;9.80;1.45;;;10.60;99.90;;;;;;4182147;28;20138;-88
2023/01/12 08:44:26;;;;;;;13.25;1.20;;;;;;;;;;4182002;28;20048;-88
2023/01/12 08:46:30;;;;;;;13.45;2.30;;;;;;;;;;4181946;28;20045;-88
2023/01/12 08:48:31;;;;;;;7.68;1.40;;;10.80;99.90;;;;;;4184988;28;20088;-87
2023/01/12 08:50:33;;;;;;;9.57;1.60;;;10.60;99.90;;;;;;4198872;28;20048;-88
2023/01/12 08:52:34;;;;;;;7.70;1.38;;;10.80;99.90;;;;;;4182568;28;20132;-87
2023/01/12 08:54:35;;;;;;;12.45;1.45;;;10.80;99.90;;;;;;4183466;28;20064;-88
2023/01/12 08:56:37;;;;;;;11.57;2.35;;;10.70;99.90;;;;;;4194841;28;20045;-89
2023/01/12 08:58:43;;;;;;;13.15;2.10;;;10.60;99.90;;;;;;4199695;28;20036;-90
2023/01/12 09:00:45;;;;;;;6.60;0.77;;;;;;;;;;4182022;28;20084;-88
2023/01/12 09:02:46;;;;;;;11.40;1.83;;;;;;;;;;4200159;28;20041;-88
2023/01/12 09:04:47;;;;;;;11.20;1.95;;;;;;;;;;4188327;28;20056;-88
2023/01/12 09:06:49;;;;;;;8.48;1.35;;;10.90;99.90;;;;;;4184775;28;20056;-88
2023/01/12 09:08:56;;;;;;;10.00;1.40;;;10.70;99.90;;;;;;4164864;28;20517;-87
2023/01/12 09:11:02;;;;;;;8.63;1.45;;;10.70;99.90;;;;;;4184189;28;20551;-88
2023/01/12 09:13:02;;;;;;;10.73;1.50;;;10.70;99.90;;;;;;4182538;28;20099;-88
2023/01/12 09:15:03;;;;;;;12.68;2.08;;;10.80;99.90;;;;;;4166544;28;20045;-88
2023/01/12 09:17:05;;;;;;;6.25;1.23;;;;;;;;;;4175076;28;20052;-87
2023/01/12 09:19:07;;;;;;;14.00;2.38;;;;;;;;;;4183296;28;20045;-88
2023/01/12 09:21:09;;;;;;;5.57;1.23;;;;;;;;;;4185588;28;20036;-87
2023/01/12 09:23:10;;;;;;;5.53;1.50;;;10.70;99.90;;;;;;4183347;28;20045;-87
2023/01/12 09:25:11;;;;;;;11.63;1.35;;;10.50;99.90;;;;;;4199447;28;20048;-87
2023/01/12 09:27:11;;;;;;;6.68;0.90;;;11.00;99.90;;;;;;4182006;28;20045;-88
2023/01/12 09:29:13;;;;;;;12.02;1.58;;;10.70;99.90;;;;;;4183339;28;20067;-88
2023/01/12 09:31:21;;;;;;;3.30;0.73;;;10.70;99.90;;;;;;4183240;28;20079;-89
2023/01/12 09:33:21;;;;;;;10.88;2.13;;;10.90;99.90;;;;;;4196319;28;20432;-88
2023/01/12 09:35:22;;;;;;;6.45;1.42;;;10.70;99.90;;;;;;4187385;28;20044;-87
2023/01/12 09:37:25;;;;;;;8.57;1.02;;;11.80;99.90;;;;;;4166044;28;20405;-87
2023/01/12 09:39:27;;;;;;;6.43;1.17;;;10.70;99.90;;;;;;4177157;28;20053;-88
2023/01/12 09:48:57;;;;;;;5.07;0.98;;;10.70;99.90;;;;;;4183006;28;20071;-88
2023/01/12 09:51:20;;;;;;;5.22;2.03;;;10.90;99.90;;;;;;4183711;28;20045;-87
2023/01/12 09:53:30;;;;;;;9.32;2.38;;;10.70;99.90;;;;;;4183069;28;20088;-88
2023/01/12 09:56:13;;;;;;;7.85;1.75;;;10.70;99.90;;;;;;4184207;28;20053;-87
2023/01/12 09:58:54;;;;;;;6.85;1.50;;;10.70;99.90;;;;;;4183346;28;20049;-89
2023/01/12 10:00:58;;;;;;;17.30;2.03;;;10.80;99.90;;;;;;4185678;28;20084;-89
2023/01/12 10:03:15;;;;;;;18.88;1.88;;;;;;;;;;4199334;28;20052;-87
2023/01/12 10:05:51;;;;;;;8.23;1.38;;;11.00;99.90;;;;;;4167815;28;20199;-88
2023/01/12 10:07:54;;;;;;;12.73;1.80;;;10.90;99.90;;;;;;4183201;28;20045;-87
2023/01/12 10:09:56;;;;;;;14.77;2.28;;;10.90;99.90;;;;;;4184632;28;20047;-88
2023/01/12 10:11:58;;;;;;;9.02;2.33;;;10.80;99.90;;;;;;4187708;28;20045;-88
2023/01/12 10:14:26;;;;;;;8.80;1.70;;;10.80;99.90;;;;;;4200357;28;20048;-88
2023/01/12 10:16:49;;;;;;;10.33;1.37;;;10.80;99.90;;;;;;4198386;28;20084;-90
2023/01/12 10:18:53;;;;;;;14.63;1.80;;;10.70;99.90;;;;;;4194721;28;20287;-89
2023/01/12 10:20:56;;;;;;;8.32;1.20;;;10.70;99.90;;;;;;4178029;28;20081;-88
2023/01/12 10:23:10;;;;;;;7.22;1.05;;;10.70;99.90;;;;;;4199666;28;20083;-89
2023/01/12 10:25:17;;;;;;;12.23;2.30;;;10.60;99.90;;;;;;4183022;28;20049;-88
2023/01/12 10:27:18;;;;;;;10.52;3.03;;;10.50;99.90;;;;;;4182172;28;20106;-88
2023/01/12 10:29:19;;;;;;;12.50;1.50;;;10.50;99.90;;;;;;4189177;28;20516;-88
2023/01/12 10:31:25;;;;;;;15.15;2.20;;;10.50;99.90;;;;;;4188115;28;20524;-92
2023/01/12 10:33:28;;;;;;;10.35;1.30;;;10.40;99.90;;;;;;4181880;28;20537;-90
2023/01/12 10:35:29;;;;;;;8.90;1.95;;;11.10;99.90;;;;;;4183361;28;20045;-88
2023/01/12 10:37:31;;;;;;;8.40;1.73;;;10.70;99.90;;;;;;4196558;28;20055;-88
2023/01/12 10:39:38;;;;;;;9.10;1.70;;;10.80;99.90;;;;;;4197806;28;20052;-88
2023/01/12 10:41:38;;;;;;;14.43;2.63;;;10.60;99.90;;;;;;4199710;28;20041;-89
2023/01/12 10:43:41;;;;;;;8.95;1.10;;;10.80;99.90;;;;;;4197987;28;20654;-88
2023/01/12 10:45:42;;;;;;;4.47;1.25;;;10.70;99.90;;;;;;4197122;28;20410;-88
2023/01/12 10:47:45;;;;;;;12.85;2.03;;;10.50;99.90;;;;;;4198089;28;20084;-88
2023/01/12 10:49:46;;;;;;;8.02;1.15;;;10.60;99.90;;;;;;4193505;28;20379;-88
2023/01/12 10:51:52;;;;;;;12.50;1.67;;;10.80;99.90;;;;;;4184062;28;20052;-88
2023/01/12 10:53:59;;;;;;;10.57;1.38;;;10.60;99.90;;;;;;4179372;28;20052;-88
2023/01/12 10:56:09;;;;;;;10.65;2.35;;;10.70;99.90;;;;;;4168118;28;20041;-90
2023/01/12 10:58:29;;;;;;;10.80;2.53;;;10.80;99.90;;;;;;4185510;28;20115;-88
2023/01/12 11:00:33;;;;;;;9.38;2.85;;;10.90;99.90;;;;;;4181528;28;20052;-90
2023/01/12 11:02:43;;;;;;;11.60;1.70;;;11.20;99.90;;;;;;4176251;28;20111;-89
2023/01/12 11:04:46;;;;;;;12.30;3.35;;;11.10;99.90;;;;;;4184592;28;20041;-89
2023/01/12 11:07:05;;;;;;;9.43;2.08;;;10.80;99.90;;;;;;4182813;28;20090;-88
2023/01/12 11:09:25;;;;;;;15.35;3.15;;;11.30;99.90;;;;;;4187092;28;20045;-89
2023/01/12 11:11:32;;;;;;;9.45;1.98;;;11.00;99.90;;;;;;4197353;28;20047;-88
2023/01/12 11:13:36;;;;;;;12.55;1.73;;;10.90;99.90;;;;;;4195921;28;20133;-89
2023/01/12 11:15:39;;;;;;;9.13;1.50;;;10.80;99.90;;;;;;4195626;28;20102;-89
2023/01/12 11:17:49;;;;;;;10.23;1.88;;;10.90;99.90;;;;;;4195392;28;20044;-90
2023/01/12 11:19:51;;;;;;;6.22;0.90;;;10.90;99.90;;;;;;4179103;28;20057;-89
2023/01/12 11:21:59;;;;;;;5.85;1.13;;;11.40;99.90;;;;;;4180343;28;20120;-90
2023/01/12 11:24:08;;;;;;;12.57;1.70;;;10.80;99.90;;;;;;4163554;28;20101;-89
2023/01/12 11:26:33;;;;;;;19.27;2.60;;;10.90;99.90;;;;;;4179616;28;20095;-89
2023/01/12 11:28:40;;;;;;;7.88;1.00;;;10.80;99.90;;;;;;4194487;28;20129;-89
2023/01/12 11:30:47;;;;;;;6.97;1.25;;;10.90;99.90;;;;;;4195403;28;20044;-89
2023/01/12 11:32:57;;;;;;;11.52;1.45;;;9.20;99.90;;;;;;4186511;28;20540;-89
2023/01/12 11:35:26;;;;;;;8.35;1.60;;;11.20;99.90;;;;;;4161659;28;20143;-89